Monday, July 28, 2014, 8:32 PM EDT

KPTB, Petersburg, Dinwiddie County Airport

Location: Petersburg, VA, United States Lat: 37.183
Local Time: 8:32 PM EDT ( 0:32 GMT) Lon: -77.517
Time Zone: US/Eastern Elev: 193 ft

Show me the last for .
Show Decoded

2014-07-28 20:15 METAR KPTB 290015Z 27004KT 10SM CLR A2980 RMK AO2 PWINO =
2014-07-28 19:35 METAR KPTB 282335Z 28006KT 10SM CLR 29/13 A2978 RMK AO2 PWINO =
2014-07-28 19:15 METAR KPTB 282315Z 28011G14KT 10SM CLR 30/13 A2977 RMK AO2 PWINO =
2014-07-28 18:55 METAR KPTB 282255Z 10SM CLR 31/13 A2976 RMK AO2 PWINO =
2014-07-28 18:35 METAR KPTB 282235Z 26007KT 10SM SCT070 31/14 A2976 RMK AO2 PWINO =
2014-07-28 18:15 METAR KPTB 282215Z 27008KT 10SM SCT 31/13 A2975 RMK AO2 PWINO =
2014-07-28 17:55 METAR KPTB 282155Z 28009G16KT 10SM SCT100 32/13 A2976 RMK AO2 PWINO =
2014-07-28 17:35 METAR KPTB 282135Z 25011G19KT 10SM CLR 32/13 RMK AO2 PWINO =
2014-07-28 17:15 METAR KPTB 282115Z 25013G18KT 10SM SCT090 32/13 A2975 RMK AO2 PWINO =
2014-07-28 16:55 METAR KPTB 282055Z 24014KT 10SM SCT090 32/13 A2974 RMK AO2 PWINO =
2014-07-28 16:35 METAR KPTB 282035Z 28010G19KT 10SM SCT090 32/13 A2975 RMK AO2 PWINO =
2014-07-28 16:15 METAR KPTB 282015Z 26011G15KT 10SM SCT070 BKN090 32/ A2975 RMK AO2 PWINO =
2014-07-28 15:55 METAR KPTB 281955Z 28009G16KT 10SM BKN090 33/13 A2974 RMK AO2 PWINO =
2014-07-28 15:35 METAR KPTB 281935Z 27010G19KT 10SM SCT065 BKN080 32/13 A2975 RMK AO2 PWINO =
2014-07-28 15:15 METAR KPTB 281915Z 26009KT 10SM SCT065 BKN090 32/14 A2974 RMK AO2 PWINO =
2014-07-28 14:55 METAR KPTB 281855Z 27008KT 10SM SCT065 SCT090 32/14 A2974 RMK AO2 PWINO =
2014-07-28 14:35 METAR KPTB 281835Z 29011G19KT 10SM SCT080 33/14 A2974 RMK AO2 PWINO =
2014-07-28 14:15 METAR KPTB 281815Z 27012G16KT 10SM SCT070 SCT080 33/16 A2973 RMK AO2 PWINO =
2014-07-28 13:55 METAR KPTB 281755Z 28010KT 10SM BKN080 32/16 A2974 RMK AO2 PWINO =
2014-07-28 13:35 METAR KPTB 281735Z 28010G16KT 10SM SCT080 33/14 A2974 RMK AO2 PWINO =
2014-07-28 13:15 METAR KPTB 281715Z 26011G17KT 10SM SCT080 32/16 A2973 RMK AO2 PWINO =
2014-07-28 12:55 METAR KPTB 281655Z 28010G19KT 250V310 10SM CLR 33/14 A2973 RMK AO2 PWINO =
2014-07-28 12:35 METAR KPTB 281635Z 27013G18KT 10SM CLR 33/15 A2974 RMK AO2 PWINO =
2014-07-28 12:15 METAR KPTB 281615Z 26012G21KT 10SM SCT060 33/16 A2973 RMK AO2 PWINO =
2014-07-28 11:55 METAR KPTB 281555Z 26008G14KT 10SM BKN060 32/16 A2973 RMK AO2 PWINO =
2014-07-28 11:35 METAR KPTB 281535Z 25013G18KT 10SM SCT060 33/16 A2972 RMK AO2 PWINO =
2014-07-28 11:15 METAR KPTB 281515Z 26010G18KT 10SM SCT050 33/16 A2972 RMK AO2 PWINO =
2014-07-28 10:55 METAR KPTB 281455Z 27009KT 10SM CLR 33/17 A2972 RMK AO2 PWINO =
2014-07-28 10:35 METAR KPTB 281435Z 26012G16KT 10SM CLR 32/17 A2971 RMK AO2 PWINO =
2014-07-28 10:15 METAR KPTB 281415Z 27011KT 10SM CLR 32/18 A2971 RMK AO2 PWINO =
2014-07-28 09:55 METAR KPTB 281355Z 27008KT 10SM CLR 32/19 A2970 RMK AO2 PWINO =
2014-07-28 09:35 METAR KPTB 281335Z 25009G15KT 10SM CLR 32/20 A2970 RMK AO2 PWINO =
2014-07-28 09:15 METAR KPTB 281315Z 25008KT 10SM CLR 31/20 A2970 RMK AO2 PWINO =
2014-07-28 08:55 METAR KPTB 281255Z 26009KT 10SM CLR 31/21 A2969 RMK AO2 PWINO =
2014-07-28 08:35 METAR KPTB 281235Z 26008KT 10SM CLR 30/21 A2969 RMK AO2 PWINO =
2014-07-28 08:15 METAR KPTB 281215Z 26009G14KT 10SM CLR 29/21 A2969 RMK AO2 PWINO =
2014-07-28 07:55 METAR KPTB 281155Z 24008KT 10SM CLR 29/21 A2968 RMK AO2 PWINO =
2014-07-28 07:35 METAR KPTB 281135Z 25008KT 10SM CLR 28/21 A2968 RMK AO2 LTG DSNT N PWINO =
2014-07-28 07:15 METAR KPTB 281115Z 25008G14KT 10SM CLR 28/21 A2967 RMK AO2 PWINO =
2014-07-28 06:55 METAR KPTB 281055Z 26010KT 10SM CLR 27/21 A2967 RMK AO2 PWINO =
2014-07-28 06:35 METAR KPTB 281035Z 26010G15KT 10SM CLR 27/21 A2967 RMK AO2 PWINO =
2014-07-28 06:15 METAR KPTB 281015Z 26008G15KT 10SM CLR 27/21 A2966 RMK AO2 PWINO =
2014-07-28 05:55 METAR KPTB 280955Z 28010G15KT 10SM CLR 27/22 A2965 RMK AO2 PWINO =
2014-07-28 05:35 METAR KPTB 280935Z 24010G15KT 10SM CLR 27/23 A2967 RMK AO2 PWINO =
2014-07-28 05:15 METAR KPTB 280915Z 23009KT 10SM CLR 26/24 A2967 RMK AO2 PWINO =
2014-07-28 04:55 METAR KPTB 280855Z 23009KT 10SM CLR 26/24 A2965 RMK AO2 PWINO =
2014-07-28 04:35 METAR KPTB 280835Z 21006KT 10SM CLR 26/24 A2964 RMK AO2 PWINO =
2014-07-28 04:15 METAR KPTB 280815Z 21006KT 10SM CLR 26/24 A2964 RMK AO2 PWINO =
2014-07-28 03:55 METAR KPTB 280755Z 21006KT 10SM CLR 26/24 A2965 RMK AO2 PWINO =
2014-07-28 03:35 METAR KPTB 280735Z 20005KT 10SM CLR 26/24 A2965 RMK AO2 PWINO =
2014-07-28 03:15 METAR KPTB 280715Z 21005KT 10SM CLR 26/24 A2966 RMK AO2 PWINO =
2014-07-28 02:55 METAR KPTB 280655Z 21006KT 10SM CLR 26/24 A2966 RMK AO2 PWINO =
2014-07-28 02:35 METAR KPTB 280635Z 20005KT 10SM CLR 26/24 A2966 RMK AO2 PWINO =
2014-07-28 02:15 METAR KPTB 280615Z 20005KT 10SM CLR 27/24 A2967 RMK AO2 PWINO =
2014-07-28 01:55 METAR KPTB 280555Z 20005KT 10SM SCT070 27/24 A2967 RMK AO2 PWINO =
2014-07-28 01:35 METAR KPTB 280535Z 20004KT 10SM BKN070 27/24 A2968 RMK AO2 PWINO =
2014-07-28 01:15 METAR KPTB 280515Z 20005KT 10SM SCT070 SCT080 27/24 A2969 RMK AO2 PWINO =
2014-07-28 00:55 METAR KPTB 280455Z 19005KT 10SM SCT080 27/24 A2970 RMK AO2 PWINO =
2014-07-28 00:35 METAR KPTB 280435Z 19006KT 10SM CLR 27/24 A2970 RMK AO2 PWINO =
2014-07-28 00:15 METAR KPTB 280415Z 20007KT 10SM CLR 27/24 A2972 RMK AO2 PWINO =
2014-07-27 23:55 METAR KPTB 280355Z 19005KT 10SM CLR 27/24 A2972 RMK AO2 PWINO =
2014-07-27 23:35 METAR KPTB 280335Z 19003KT 10SM SCT095 27/24 A2973 RMK AO2 PWINO =
2014-07-27 23:15 METAR KPTB 280315Z 17003KT 10SM SCT095 27/24 A2974 RMK AO2 PWINO =
2014-07-27 22:55 METAR KPTB 280255Z 18004KT 10SM CLR 27/24 A2975 RMK AO2 PWINO =
2014-07-27 22:35 METAR KPTB 280235Z 18003KT 10SM CLR 27/24 A2975 RMK AO2 PWINO =
2014-07-27 22:15 METAR KPTB 280215Z 17003KT 10SM CLR 27/24 A2975 RMK AO2 PWINO =
2014-07-27 21:55 METAR KPTB 280155Z 00000KT 10SM CLR 27/24 A2975 RMK AO2 PWINO =
2014-07-27 21:35 METAR KPTB 280135Z 17003KT 10SM SCT080 27/24 A2976 RMK AO2 PWINO =
2014-07-27 21:15 METAR KPTB 280115Z 19003KT 10SM SCT080 27/24 A2976 RMK AO2 PWINO =
2014-07-27 20:55 METAR KPTB 280055Z 18003KT 10SM CLR 28/24 A2977 RMK AO2 PWINO =
2014-07-27 20:35 METAR KPTB 280035Z 18004KT 10SM CLR 28/24 A2977 RMK AO2 PWINO =

Support USWX by starting your Amazon purchase here.